Terminal Aerodrome Forecast
Issued by NWS

Home | Current Version | Previous Version | Text Only | Print | Product List | Glossary On
Versions: 1 2 3 4 5 6 7 8 9 10 11 12 13 14 15 16 17 18 19
000
FTUS43 KGRB 230500
TAFATW
TAF
KATW 230539Z 2306/2406 19006KT 1SM BR OVC003
      TEMPO 2306/2310 1/4SM -DZ FG OVC002
     FM231000 18009KT 1/2SM -DZ FG OVC002
     FM231400 18011KT 1SM -RA BR OVC004
     FM232100 15007KT 2SM -RA BR OVC005
     FM240100 13005KT 1SM RA BR OVC002=

USA.gov is the U.S. government's official web portal to all federal, state and local government web resources and services.